createdAt,value
2024-02-03T00:00:45.842Z,37.53
2024-02-03T00:03:13.003Z,33.17
2024-02-03T00:05:41.574Z,30.02
2024-02-03T00:08:08.698Z,32.92
2024-02-03T00:10:35.766Z,36.35
2024-02-03T00:13:02.698Z,31.80
2024-02-03T00:15:30.217Z,33.72
2024-02-03T00:17:57.546Z,36.58
2024-02-03T00:20:24.599Z,38.15
2024-02-03T00:22:52.934Z,37.78
2024-02-03T00:25:20.733Z,34.50
2024-02-03T00:27:48.937Z,33.13
2024-02-03T00:30:16.227Z,38.33
2024-02-03T00:32:43.390Z,41.95
2024-02-03T00:35:12.418Z,37.78
2024-02-03T00:37:39.459Z,35.53
2024-02-03T00:40:07.443Z,36.55
2024-02-03T00:42:34.474Z,34.25
2024-02-03T00:45:01.479Z,40.95
2024-02-03T00:47:28.586Z,38.83
2024-02-03T00:49:55.818Z,42.60
2024-02-03T00:52:23.210Z,41.85
2024-02-03T00:54:50.275Z,41.42
2024-02-03T00:57:17.258Z,42.63
2024-02-03T00:59:44.300Z,43.70
2024-02-03T01:02:11.272Z,41.80
2024-02-03T01:04:38.352Z,42.53
2024-02-03T01:07:05.355Z,40.92
2024-02-03T01:09:32.494Z,46.35
2024-02-03T01:12:00.128Z,42.97
2024-02-03T01:14:27.193Z,38.80
2024-02-03T01:16:54.209Z,44.42
2024-02-03T01:19:21.991Z,43.42
2024-02-03T01:21:49.094Z,46.75
2024-02-03T01:24:16.132Z,41.00
2024-02-03T01:26:43.125Z,41.65
2024-02-03T01:29:10.132Z,48.33
2024-02-03T01:31:37.743Z,45.33
2024-02-03T01:34:04.920Z,42.17
2024-02-03T01:36:32.551Z,43.88
2024-02-03T01:38:59.649Z,44.42
2024-02-03T01:41:28.417Z,50.55
2024-02-03T01:43:55.493Z,43.83
2024-02-03T01:46:22.953Z,44.85
2024-02-03T01:48:50.256Z,46.88
2024-02-03T01:51:20.155Z,47.33
2024-02-03T01:53:48.563Z,49.72
2024-02-03T01:56:20.195Z,50.13
2024-02-03T01:58:47.671Z,47.83
2024-02-03T02:01:16.555Z,52.92
2024-02-03T02:03:45.535Z,48.92
2024-02-03T02:06:12.838Z,53.28
2024-02-03T02:08:40.561Z,55.10
2024-02-03T02:11:07.720Z,55.85
2024-02-03T02:13:34.987Z,54.15
2024-02-03T02:16:02.434Z,48.38
2024-02-03T02:18:29.755Z,52.80
2024-02-03T02:20:57.162Z,51.10
2024-02-03T02:23:24.185Z,56.63
2024-02-03T02:25:51.234Z,48.53
2024-02-03T02:28:18.265Z,51.05
2024-02-03T02:30:45.412Z,52.88
2024-02-03T02:33:13.489Z,48.05
2024-02-03T02:35:40.643Z,50.78
2024-02-03T02:38:07.691Z,45.67
2024-02-03T02:40:34.882Z,45.25
2024-02-03T02:43:02.622Z,48.75
2024-02-03T02:45:29.628Z,47.30
2024-02-03T02:47:56.700Z,47.17
2024-02-03T02:50:23.870Z,46.88
2024-02-03T02:52:50.857Z,41.90
2024-02-03T02:55:18.096Z,45.28
2024-02-03T02:57:45.349Z,47.33
2024-02-03T03:00:13.193Z,48.95
2024-02-03T03:02:40.213Z,47.42
2024-02-03T03:05:09.432Z,49.10
2024-02-03T03:07:38.072Z,44.07
2024-02-03T03:10:05.318Z,44.97
2024-02-03T03:12:32.413Z,47.17
2024-02-03T03:14:59.409Z,48.35
2024-02-03T03:17:26.466Z,44.28
2024-02-03T03:19:53.565Z,46.75
2024-02-03T03:22:20.675Z,48.35
2024-02-03T03:24:47.704Z,47.65
2024-02-03T03:27:14.943Z,48.60
2024-02-03T03:29:43.342Z,46.90
2024-02-03T03:32:10.934Z,45.45
2024-02-03T03:34:37.945Z,45.63
2024-02-03T03:37:05.170Z,55.67
2024-02-03T03:39:32.083Z,42.75
2024-02-03T03:41:59.174Z,50.33
2024-02-03T03:44:26.210Z,50.30
2024-02-03T03:46:53.227Z,47.00
2024-02-03T03:49:20.251Z,48.65
2024-02-03T03:51:47.507Z,46.58
2024-02-03T03:54:14.542Z,43.20
2024-02-03T03:56:41.799Z,49.03
2024-02-03T03:59:21.478Z,47.38
2024-02-03T04:01:50.154Z,48.67
2024-02-03T04:04:19.004Z,51.63
2024-02-03T04:06:46.674Z,53.08
2024-02-03T04:09:14.972Z,48.95
2024-02-03T04:11:42.030Z,57.90
2024-02-03T04:14:09.495Z,52.05
2024-02-03T04:16:36.686Z,58.88
2024-02-03T04:19:03.959Z,56.42
2024-02-03T04:21:32.634Z,58.92
2024-02-03T04:23:59.682Z,48.63
2024-02-03T04:26:26.680Z,54.40
2024-02-03T04:28:53.521Z,50.08
2024-02-03T04:31:20.747Z,50.25
2024-02-03T04:33:47.776Z,52.67
2024-02-03T04:36:14.904Z,51.65
2024-02-03T04:38:41.980Z,46.35
2024-02-03T04:41:08.958Z,47.88
2024-02-03T04:43:35.908Z,50.25
2024-02-03T04:46:02.863Z,49.17
2024-02-03T04:48:29.955Z,51.92
2024-02-03T04:50:57.102Z,47.15
2024-02-03T04:53:24.043Z,42.65
2024-02-03T04:55:51.044Z,47.15
2024-02-03T04:58:20.190Z,42.85
2024-02-03T05:00:47.641Z,52.28
2024-02-03T05:03:14.615Z,48.33
2024-02-03T05:05:41.827Z,48.65
2024-02-03T05:08:08.871Z,48.35
2024-02-03T05:10:35.839Z,45.08
2024-02-03T05:13:03.073Z,38.78
2024-02-03T05:15:30.214Z,40.72
2024-02-03T05:17:57.235Z,41.97
2024-02-03T05:20:24.195Z,39.10
2024-02-03T05:22:51.233Z,41.60
2024-02-03T05:25:18.528Z,40.22
2024-02-03T05:27:45.502Z,37.08
2024-02-03T05:30:13.929Z,35.63
2024-02-03T05:32:40.906Z,38.63
2024-02-03T05:35:08.693Z,36.28
2024-02-03T05:37:36.218Z,36.55
2024-02-03T05:40:05.075Z,42.35
2024-02-03T05:42:32.189Z,40.75
2024-02-03T05:45:00.216Z,37.35
2024-02-03T05:47:27.557Z,40.35
2024-02-03T05:49:54.893Z,38.33
2024-02-03T05:52:21.842Z,35.03
2024-02-03T05:54:49.618Z,36.88
2024-02-03T05:57:16.657Z,38.13
2024-02-03T05:59:50.926Z,34.50
2024-02-03T06:02:18.844Z,39.10
2024-02-03T06:04:45.898Z,33.30
2024-02-03T06:07:13.373Z,30.58
2024-02-03T06:09:40.503Z,31.65
2024-02-03T06:12:07.802Z,30.83
2024-02-03T06:14:35.692Z,35.63
2024-02-03T06:17:02.726Z,32.92
2024-02-03T06:19:29.739Z,31.05
2024-02-03T06:21:56.862Z,33.08
2024-02-03T06:24:23.978Z,29.50
2024-02-03T06:26:54.478Z,33.25
2024-02-03T06:29:21.422Z,34.88
2024-02-03T06:31:48.416Z,31.75
2024-02-03T06:34:15.458Z,32.42
2024-02-03T06:36:42.610Z,32.67
2024-02-03T06:39:09.950Z,32.70
2024-02-03T06:41:37.041Z,31.60
2024-02-03T06:44:04.123Z,32.95
2024-02-03T06:46:31.081Z,33.38
2024-02-03T06:48:58.141Z,24.70
2024-02-03T06:51:25.250Z,26.42
2024-02-03T06:53:52.213Z,24.52
2024-02-03T06:56:19.163Z,29.42
2024-02-03T06:58:47.585Z,24.77
2024-02-03T07:01:15.387Z,24.33
2024-02-03T07:03:42.653Z,23.00
2024-02-03T07:06:09.856Z,22.25
2024-02-03T07:08:37.026Z,22.30
2024-02-03T07:11:04.271Z,26.02
2024-02-03T07:13:32.910Z,28.38
2024-02-03T07:16:00.101Z,22.48
2024-02-03T07:18:27.382Z,20.98
2024-02-03T07:20:54.402Z,21.45
2024-02-03T07:23:21.317Z,23.52
2024-02-03T07:25:48.492Z,22.50
2024-02-03T07:28:15.474Z,20.50
2024-02-03T07:30:42.546Z,22.85
2024-02-03T07:33:11.598Z,25.48
2024-02-03T07:35:38.712Z,21.40
2024-02-03T07:38:07.909Z,25.70
2024-02-03T07:40:34.864Z,24.92
2024-02-03T07:43:01.870Z,25.67
2024-02-03T07:45:28.899Z,24.05
2024-02-03T07:47:56.068Z,28.90
2024-02-03T07:50:23.996Z,26.52
2024-02-03T07:52:51.323Z,28.05
2024-02-03T07:55:18.614Z,26.42
2024-02-03T07:57:48.800Z,23.33
2024-02-03T08:00:18.442Z,21.27
2024-02-03T08:02:45.381Z,25.75
2024-02-03T08:05:12.524Z,22.88
2024-02-03T08:07:39.764Z,24.35
2024-02-03T08:10:07.473Z,27.83
2024-02-03T08:12:34.731Z,19.42
2024-02-03T08:15:01.793Z,20.52
2024-02-03T08:17:28.737Z,24.98
2024-02-03T08:19:55.833Z,19.85
2024-02-03T08:22:23.126Z,20.13
2024-02-03T08:24:51.031Z,18.35
2024-02-03T08:27:18.097Z,18.70
2024-02-03T08:29:45.129Z,18.75
2024-02-03T08:32:12.047Z,18.75
2024-02-03T08:34:39.210Z,14.32
2024-02-03T08:37:06.326Z,18.20
2024-02-03T08:44:30.369Z,18.67
2024-02-03T08:46:57.475Z,21.33
2024-02-03T08:49:24.514Z,21.60
2024-02-03T08:51:51.621Z,18.38
2024-02-03T08:54:18.610Z,20.77
2024-02-03T08:56:45.657Z,15.93
2024-02-03T08:59:13.227Z,20.83
2024-02-03T09:01:40.248Z,22.42
2024-02-03T09:04:09.273Z,16.50
2024-02-03T09:06:36.576Z,17.23
2024-02-03T09:09:06.580Z,15.30
2024-02-03T09:14:03.127Z,17.45
2024-02-03T09:16:30.329Z,18.63
2024-02-03T09:18:57.458Z,18.00
2024-02-03T09:21:24.902Z,22.98
2024-02-03T09:23:51.893Z,18.40
2024-02-03T09:26:18.955Z,22.52
2024-02-03T09:28:45.941Z,18.10
2024-02-03T09:31:20.144Z,19.23
2024-02-03T09:33:48.046Z,17.35
2024-02-03T09:36:17.880Z,16.60
2024-02-03T09:38:45.033Z,16.50
2024-02-03T09:41:12.265Z,18.60
2024-02-03T09:43:39.442Z,19.70
2024-02-03T09:46:07.011Z,15.48
2024-02-03T09:48:34.254Z,17.90
2024-02-03T09:51:02.392Z,18.40
2024-02-03T09:53:30.610Z,32.67
2024-02-03T09:56:00.395Z,48.38
2024-02-03T09:58:27.432Z,52.25
2024-02-03T10:00:54.665Z,61.90
2024-02-03T10:03:22.357Z,44.72
2024-02-03T10:06:03.255Z,58.33
2024-02-03T10:08:31.417Z,51.42
2024-02-03T10:10:58.614Z,53.92
2024-02-03T10:13:25.812Z,50.25
2024-02-03T10:16:04.299Z,62.38
2024-02-03T10:18:36.325Z,54.05
2024-02-03T10:21:04.520Z,54.95
2024-02-03T10:23:31.765Z,48.15
2024-02-03T10:26:00.232Z,59.95
2024-02-03T10:28:27.964Z,48.30
2024-02-03T10:31:01.968Z,53.58
2024-02-03T10:33:29.515Z,47.55
2024-02-03T10:35:57.349Z,46.65
2024-02-03T10:38:24.345Z,55.45
2024-02-03T10:40:52.932Z,53.22
2024-02-03T10:43:22.254Z,48.55
2024-02-03T10:45:55.068Z,57.65
2024-02-03T10:48:27.441Z,51.05
2024-02-03T10:50:59.303Z,45.70
2024-02-03T10:53:49.323Z,52.70
2024-02-03T10:58:44.273Z,52.88
2024-02-03T11:01:19.325Z,61.95
2024-02-03T11:03:50.591Z,52.63
2024-02-03T11:06:31.889Z,52.40
2024-02-03T11:09:20.983Z,56.65
2024-02-03T11:11:49.931Z,50.17
2024-02-03T11:14:32.499Z,46.03
2024-02-03T11:17:03.537Z,50.13
2024-02-03T11:19:33.517Z,43.78
2024-02-03T11:22:02.421Z,39.50
2024-02-03T11:24:30.808Z,45.20
2024-02-03T11:27:08.739Z,43.00
2024-02-03T11:29:37.513Z,47.45
2024-02-03T11:32:06.668Z,40.13
2024-02-03T11:34:35.928Z,39.73
2024-02-03T11:37:04.088Z,44.33
2024-02-03T11:39:36.221Z,44.72
2024-02-03T11:42:04.526Z,42.08
2024-02-03T11:44:50.520Z,41.55
2024-02-03T11:47:21.083Z,44.70
2024-02-03T11:49:48.538Z,41.70
2024-02-03T11:52:19.048Z,47.08
2024-02-03T11:54:46.991Z,38.53
2024-02-03T11:57:16.311Z,37.33
2024-02-03T11:59:43.819Z,36.60
2024-02-03T12:02:12.706Z,36.72
2024-02-03T12:04:39.882Z,41.42
2024-02-03T12:07:07.234Z,44.15
2024-02-03T12:09:34.971Z,37.13
2024-02-03T12:12:01.951Z,45.90
2024-02-03T12:14:30.877Z,36.30
2024-02-03T12:16:59.067Z,38.42
2024-02-03T12:19:27.928Z,40.55
2024-02-03T12:21:56.699Z,39.53
2024-02-03T12:24:23.925Z,41.83
2024-02-03T12:26:51.094Z,38.42
2024-02-03T12:29:18.645Z,37.80
2024-02-03T12:31:45.579Z,32.33
2024-02-03T12:34:12.892Z,42.00
2024-02-03T12:36:40.107Z,43.30
2024-02-03T12:39:07.334Z,45.10
2024-02-03T12:41:34.507Z,34.55
2024-02-03T12:44:01.658Z,37.55
2024-02-03T12:46:28.859Z,39.42
2024-02-03T12:48:56.361Z,32.15
2024-02-03T12:51:23.706Z,37.22
2024-02-03T12:53:51.717Z,39.95
2024-02-03T12:56:19.570Z,32.10
2024-02-03T12:58:48.607Z,35.45
2024-02-03T13:01:15.645Z,33.47
2024-02-03T13:03:42.755Z,33.63
2024-02-03T13:06:10.409Z,32.33
2024-02-03T13:08:37.437Z,33.10
2024-02-03T13:11:06.038Z,34.95
2024-02-03T13:13:32.971Z,29.73
2024-02-03T13:16:00.028Z,33.13
2024-02-03T13:18:27.370Z,33.25
2024-02-03T13:20:54.432Z,30.13
2024-02-03T13:23:21.368Z,27.45
2024-02-03T13:25:49.095Z,28.83
2024-02-03T13:28:16.129Z,26.55
2024-02-03T13:30:43.079Z,28.35
2024-02-03T13:33:11.639Z,28.20
2024-02-03T13:35:38.962Z,28.00
2024-02-03T13:38:06.081Z,29.45
2024-02-03T13:40:33.877Z,31.33
2024-02-03T13:43:02.449Z,29.77
2024-02-03T13:45:32.536Z,25.95
2024-02-03T13:47:59.890Z,24.38
2024-02-03T13:50:26.933Z,30.50
2024-02-03T13:55:24.982Z,28.50
2024-02-03T13:57:52.260Z,28.83
2024-02-03T14:00:19.522Z,26.65
2024-02-03T14:02:46.593Z,30.58
2024-02-03T14:05:14.140Z,25.27
2024-02-03T14:07:41.158Z,27.70
2024-02-03T14:10:08.522Z,27.17
2024-02-03T14:12:35.535Z,32.50
2024-02-03T14:15:03.013Z,31.52
2024-02-03T14:17:30.751Z,27.45
2024-02-03T14:19:57.934Z,25.40
2024-02-03T14:22:25.009Z,28.55
2024-02-03T14:24:52.039Z,24.45
2024-02-03T14:27:19.092Z,24.60
2024-02-03T14:29:46.147Z,29.40
2024-02-03T14:34:46.476Z,33.50
2024-02-03T14:37:13.699Z,34.30
2024-02-03T14:39:40.619Z,31.85
2024-02-03T14:42:10.865Z,35.25
2024-02-03T14:44:38.861Z,39.38
2024-02-03T14:47:06.314Z,35.85
2024-02-03T14:49:33.432Z,26.33
2024-02-03T14:52:00.590Z,28.67
2024-02-03T14:54:27.823Z,27.15
2024-02-03T14:56:56.795Z,30.15
2024-02-03T14:59:25.175Z,32.38
2024-02-03T15:01:52.167Z,34.42
2024-02-03T15:04:19.442Z,51.33
2024-02-03T15:06:46.970Z,43.55
2024-02-03T15:09:14.084Z,59.47
2024-02-03T15:11:41.262Z,43.65
2024-02-03T15:14:08.659Z,39.05
2024-02-03T15:16:35.531Z,37.35
2024-02-03T15:19:02.738Z,37.53
2024-02-03T15:21:33.324Z,36.38
2024-02-03T15:24:00.514Z,31.92
2024-02-03T15:26:27.484Z,27.55
2024-02-03T15:28:54.837Z,24.77
2024-02-03T15:31:22.077Z,30.00
2024-02-03T15:33:49.455Z,33.72
2024-02-03T15:36:17.475Z,34.35
2024-02-03T15:38:44.674Z,31.75
2024-02-03T15:41:11.840Z,37.45
2024-02-03T15:43:40.721Z,35.83
2024-02-03T15:46:08.375Z,37.03
2024-02-03T15:48:35.662Z,27.80
2024-02-03T15:51:02.693Z,30.48
2024-02-03T15:53:29.698Z,32.97
2024-02-03T15:55:57.064Z,31.08
2024-02-03T15:58:26.294Z,28.17
2024-02-03T16:01:00.091Z,41.13
2024-02-03T16:03:27.447Z,30.15
2024-02-03T16:05:54.672Z,31.70
2024-02-03T16:08:23.115Z,39.55
2024-02-03T16:10:50.571Z,28.70
2024-02-03T16:13:17.882Z,30.33
2024-02-03T16:15:47.371Z,34.22
2024-02-03T16:18:16.065Z,31.63
2024-02-03T16:20:43.591Z,38.85
2024-02-03T16:23:13.724Z,36.30
2024-02-03T16:25:40.913Z,31.23
2024-02-03T16:28:08.679Z,34.05
2024-02-03T16:30:36.225Z,37.47
2024-02-03T16:33:03.548Z,33.53
2024-02-03T16:35:30.826Z,35.80
2024-02-03T16:37:58.829Z,35.90
2024-02-03T16:40:25.886Z,35.67
2024-02-03T16:42:52.825Z,32.40
2024-02-03T16:45:19.894Z,34.83
2024-02-03T16:47:47.197Z,38.25
2024-02-03T16:50:14.268Z,37.67
2024-02-03T16:52:41.228Z,34.42
2024-02-03T16:55:08.738Z,50.28
2024-02-03T16:57:37.618Z,57.83
2024-02-03T17:00:07.796Z,60.97
2024-02-03T17:02:35.082Z,64.22
2024-02-03T17:05:02.254Z,42.90
2024-02-03T17:07:30.046Z,35.72
2024-02-03T17:09:57.392Z,41.67
2024-02-03T17:12:24.910Z,38.88
2024-02-03T17:14:52.015Z,41.17
2024-02-03T17:17:19.101Z,37.55
2024-02-03T17:19:48.953Z,43.10
2024-02-03T17:22:16.128Z,43.95
2024-02-03T17:25:03.489Z,46.13
2024-02-03T17:27:31.096Z,38.85
2024-02-03T17:29:58.084Z,44.15
2024-02-03T17:32:26.524Z,37.75
2024-02-03T17:34:53.935Z,47.97
2024-02-03T17:37:21.161Z,44.35
2024-02-03T17:39:48.388Z,47.08
2024-02-03T17:42:15.466Z,36.05
2024-02-03T17:44:45.646Z,35.50
2024-02-03T17:47:13.540Z,37.33
2024-02-03T17:49:40.782Z,40.58
2024-02-03T17:52:14.945Z,41.17
2024-02-03T17:54:42.432Z,40.03
2024-02-03T17:57:10.025Z,38.08
2024-02-03T17:59:38.966Z,43.20
2024-02-03T18:02:12.525Z,45.05
2024-02-03T18:04:39.717Z,50.20
2024-02-03T18:07:07.058Z,58.75
2024-02-03T18:09:34.174Z,49.88
2024-02-03T18:12:01.369Z,58.28
2024-02-03T18:14:28.386Z,56.15
2024-02-03T18:16:55.367Z,45.83
2024-02-03T18:19:22.465Z,49.58
2024-02-03T18:21:52.182Z,57.60
2024-02-03T18:24:19.589Z,61.10
2024-02-03T18:26:46.509Z,77.30
2024-02-03T18:29:13.845Z,57.55
2024-02-03T18:31:40.966Z,64.65
2024-02-03T18:34:08.474Z,59.78
2024-02-03T18:36:35.892Z,59.88
2024-02-03T18:39:03.165Z,60.78
2024-02-03T18:41:30.935Z,59.47
2024-02-03T18:43:58.683Z,56.03
2024-02-03T18:46:28.349Z,60.90
2024-02-03T18:48:58.195Z,59.33
2024-02-03T18:51:25.855Z,64.70
2024-02-03T18:53:52.946Z,62.30
2024-02-03T18:56:24.209Z,59.58
2024-02-03T18:58:51.959Z,54.72
2024-02-03T19:01:19.654Z,58.88
2024-02-03T19:03:49.413Z,63.50
2024-02-03T19:06:17.093Z,58.60
2024-02-03T19:08:44.117Z,59.75
2024-02-03T19:11:11.173Z,59.38
2024-02-03T19:13:38.303Z,56.47
2024-02-03T19:16:06.200Z,61.80
2024-02-03T19:18:33.287Z,59.85
2024-02-03T19:21:00.509Z,63.72
2024-02-03T19:23:28.255Z,59.13
2024-02-03T19:25:56.655Z,58.50
2024-02-03T19:28:23.589Z,55.30
2024-02-03T19:30:50.750Z,56.58
2024-02-03T19:33:22.240Z,59.33
2024-02-03T19:35:51.412Z,62.75
2024-02-03T19:38:19.587Z,67.50
2024-02-03T19:40:50.272Z,73.95
2024-02-03T19:43:18.693Z,72.07
2024-02-03T19:45:45.812Z,69.20
2024-02-03T19:48:13.129Z,82.07
2024-02-03T19:50:40.410Z,71.28
2024-02-03T19:53:07.953Z,72.95
2024-02-03T19:55:35.176Z,72.18
2024-02-03T19:58:02.365Z,77.85
2024-02-03T20:00:29.615Z,78.57
2024-02-03T20:02:56.678Z,77.85
2024-02-03T20:05:23.726Z,85.53
2024-02-03T20:07:50.921Z,84.07
2024-02-03T20:10:19.402Z,88.68
2024-02-03T20:12:46.655Z,106.47
2024-02-03T20:15:13.869Z,105.28
2024-02-03T20:17:42.051Z,92.88
2024-02-03T20:20:09.546Z,98.60
2024-02-03T20:22:37.280Z,89.95
2024-02-03T20:25:04.784Z,92.55
2024-02-03T20:27:31.974Z,89.63
2024-02-03T20:29:58.950Z,95.10
2024-02-03T20:32:26.129Z,113.22
2024-02-03T20:34:53.202Z,115.57
2024-02-03T20:37:20.317Z,105.13
2024-02-03T20:39:47.260Z,112.50
2024-02-03T20:42:16.751Z,116.57
2024-02-03T20:44:46.687Z,121.47
2024-02-03T20:47:13.945Z,122.93
2024-02-03T20:49:41.141Z,112.20
2024-02-03T20:52:08.461Z,122.43
2024-02-03T20:54:38.800Z,121.97
2024-02-03T20:57:06.043Z,125.47
2024-02-03T20:59:33.184Z,117.57
2024-02-03T21:02:01.788Z,113.65
2024-02-03T21:04:29.099Z,117.38
2024-02-03T21:06:56.498Z,111.72
2024-02-03T21:09:23.950Z,105.88
2024-02-03T21:11:51.090Z,108.28
2024-02-03T21:14:18.330Z,112.60
2024-02-03T21:16:45.340Z,111.25
2024-02-03T21:19:12.566Z,110.22
2024-02-03T21:21:42.970Z,118.00
2024-02-03T21:24:10.139Z,122.78
2024-02-03T21:26:37.160Z,110.68
2024-02-03T21:29:04.786Z,109.22
2024-02-03T21:31:31.812Z,106.57
2024-02-03T21:33:59.663Z,107.85
2024-02-03T21:36:26.846Z,101.90
2024-02-03T21:38:53.872Z,89.40
2024-02-03T21:41:20.869Z,94.20
2024-02-03T21:43:53.353Z,107.22
2024-02-03T21:46:20.851Z,98.78
2024-02-03T21:48:49.919Z,94.32
2024-02-03T21:51:18.052Z,100.75
2024-02-03T21:53:45.405Z,100.18
2024-02-03T21:56:16.695Z,96.13
2024-02-03T21:58:44.481Z,98.55
2024-02-03T22:01:12.280Z,93.63
2024-02-03T22:03:40.928Z,92.20
2024-02-03T22:06:08.529Z,94.57
2024-02-03T22:08:36.064Z,94.47
2024-02-03T22:11:03.076Z,95.88
2024-02-03T22:13:30.229Z,100.38
2024-02-03T22:15:57.211Z,103.13
2024-02-03T22:18:24.414Z,99.53
2024-02-03T22:20:51.612Z,96.10
2024-02-03T22:23:18.688Z,98.68
2024-02-03T22:25:45.676Z,99.63
2024-02-03T22:28:12.874Z,98.07
2024-02-03T22:30:39.862Z,98.47
2024-02-03T22:33:07.134Z,104.05
2024-02-03T22:35:34.215Z,93.85
2024-02-03T22:38:01.318Z,100.00
2024-02-03T22:40:28.339Z,113.72
2024-02-03T22:42:55.433Z,101.25
2024-02-03T22:45:22.463Z,99.22
2024-02-03T22:47:49.652Z,96.22
2024-02-03T22:50:16.960Z,88.88
2024-02-03T22:52:44.368Z,94.10
2024-02-03T22:55:11.631Z,84.93
2024-02-03T22:57:39.315Z,79.03
2024-02-03T23:00:28.971Z,79.97
2024-02-03T23:02:57.824Z,83.05
2024-02-03T23:05:28.123Z,84.63
2024-02-03T23:07:58.107Z,88.45
2024-02-03T23:10:39.364Z,93.47
2024-02-03T23:13:24.130Z,100.80
2024-02-03T23:15:52.854Z,100.70
2024-02-03T23:18:20.042Z,93.18
2024-02-03T23:21:12.784Z,91.90
2024-02-03T23:23:40.084Z,85.07
2024-02-03T23:26:07.232Z,93.22
2024-02-03T23:28:35.264Z,89.95
2024-02-03T23:31:03.543Z,84.20
2024-02-03T23:33:31.242Z,90.95
2024-02-03T23:35:58.382Z,90.53
2024-02-03T23:38:25.887Z,91.20
2024-02-03T23:40:52.879Z,97.93
2024-02-03T23:43:20.684Z,77.38
2024-02-03T23:45:48.222Z,91.85
2024-02-03T23:48:15.445Z,96.10
2024-02-03T23:50:42.443Z,78.38
2024-02-03T23:53:09.466Z,85.50
2024-02-03T23:55:36.707Z,85.43
2024-02-03T23:58:03.973Z,82.75
